sensor_id;sensor_type;location;lat;lon;timestamp;P1;durP1;ratioP1;P2;durP2;ratioP2
21539;SDS011;10931;52.164;5.518;2023-07-08T01:46:27;2.90;;;1.27;;
21539;SDS011;10931;52.164;5.518;2023-07-08T01:48:57;1.60;;;1.17;;
21539;SDS011;10931;52.164;5.518;2023-07-08T01:51:33;1.20;;;0.98;;
21539;SDS011;10931;52.164;5.518;2023-07-08T01:54:01;1.38;;;1.05;;
21539;SDS011;10931;52.164;5.518;2023-07-08T01:56:32;1.10;;;1.00;;
21539;SDS011;10931;52.164;5.518;2023-07-08T01:59:00;1.90;;;1.17;;
21539;SDS011;10931;52.164;5.518;2023-07-08T02:01:39;1.27;;;1.10;;
21539;SDS011;10931;52.164;5.518;2023-07-08T02:04:07;2.00;;;1.23;;
21539;SDS011;10931;52.164;5.518;2023-07-08T02:06:35;2.15;;;1.20;;
21539;SDS011;10931;52.164;5.518;2023-07-08T02:09:03;1.92;;;1.05;;
21539;SDS011;10931;52.164;5.518;2023-07-08T04:48:37;1.65;;;1.10;;
21539;SDS011;10931;52.164;5.518;2023-07-08T04:51:11;1.25;;;1.05;;
21539;SDS011;10931;52.164;5.518;2023-07-08T04:53:52;2.13;;;1.20;;
21539;SDS011;10931;52.164;5.518;2023-07-08T04:56:39;2.15;;;1.05;;
21539;SDS011;10931;52.164;5.518;2023-07-08T04:59:14;1.67;;;1.27;;
21539;SDS011;10931;52.164;5.518;2023-07-08T05:01:46;1.42;;;1.20;;
21539;SDS011;10931;52.164;5.518;2023-07-08T05:04:13;1.08;;;0.82;;
21539;SDS011;10931;52.164;5.518;2023-07-08T05:06:43;1.42;;;1.10;;
21539;SDS011;10931;52.164;5.518;2023-07-08T05:09:29;1.30;;;1.10;;
21539;SDS011;10931;52.164;5.518;2023-07-08T05:12:07;1.38;;;1.10;;
21539;SDS011;10931;52.164;5.518;2023-07-08T05:14:51;1.23;;;1.08;;
21539;SDS011;10931;52.164;5.518;2023-07-08T05:17:34;1.20;;;1.00;;
21539;SDS011;10931;52.164;5.518;2023-07-08T05:20:02;1.05;;;0.95;;
21539;SDS011;10931;52.164;5.518;2023-07-08T05:22:35;1.38;;;0.98;;
21539;SDS011;10931;52.164;5.518;2023-07-08T05:25:23;1.92;;;1.20;;
21539;SDS011;10931;52.164;5.518;2023-07-08T05:28:05;2.85;;;1.20;;
21539;SDS011;10931;52.164;5.518;2023-07-08T05:30:34;1.17;;;1.08;;
21539;SDS011;10931;52.164;5.518;2023-07-08T05:35:39;0.98;;;0.90;;
21539;SDS011;10931;52.164;5.518;2023-07-08T05:38:15;1.42;;;1.15;;
21539;SDS011;10931;52.164;5.518;2023-07-08T05:40:42;1.65;;;1.00;;
21539;SDS011;10931;52.164;5.518;2023-07-08T05:43:10;0.85;;;0.80;;
21539;SDS011;10931;52.164;5.518;2023-07-08T05:45:44;2.42;;;1.40;;
21539;SDS011;10931;52.164;5.518;2023-07-08T05:48:13;1.70;;;1.30;;
21539;SDS011;10931;52.164;5.518;2023-07-08T05:50:52;1.45;;;1.02;;
21539;SDS011;10931;52.164;5.518;2023-07-08T05:53:23;1.42;;;1.08;;
21539;SDS011;10931;52.164;5.518;2023-07-08T05:55:52;3.10;;;1.25;;
21539;SDS011;10931;52.164;5.518;2023-07-08T05:58:35;1.23;;;0.90;;
21539;SDS011;10931;52.164;5.518;2023-07-08T06:03:52;1.92;;;1.17;;
21539;SDS011;10931;52.164;5.518;2023-07-08T06:06:30;1.50;;;1.00;;
21539;SDS011;10931;52.164;5.518;2023-07-08T06:08:59;2.78;;;1.20;;
21539;SDS011;10931;52.164;5.518;2023-07-08T06:11:33;1.52;;;1.15;;
21539;SDS011;10931;52.164;5.518;2023-07-08T06:14:10;1.20;;;1.05;;
21539;SDS011;10931;52.164;5.518;2023-07-08T06:16:45;1.58;;;1.08;;
21539;SDS011;10931;52.164;5.518;2023-07-08T06:19:11;2.22;;;1.15;;
21539;SDS011;10931;52.164;5.518;2023-07-08T06:21:40;1.58;;;1.00;;
21539;SDS011;10931;52.164;5.518;2023-07-08T06:24:06;1.10;;;1.00;;
21539;SDS011;10931;52.164;5.518;2023-07-08T06:26:35;1.98;;;0.93;;
21539;SDS011;10931;52.164;5.518;2023-07-08T06:29:04;1.40;;;1.10;;
21539;SDS011;10931;52.164;5.518;2023-07-08T06:31:30;1.58;;;1.02;;
21539;SDS011;10931;52.164;5.518;2023-07-08T06:33:56;1.10;;;0.82;;
21539;SDS011;10931;52.164;5.518;2023-07-08T06:36:22;0.85;;;0.85;;
21539;SDS011;10931;52.164;5.518;2023-07-08T06:38:50;1.40;;;1.10;;
21539;SDS011;10931;52.164;5.518;2023-07-08T06:41:16;1.90;;;1.08;;
21539;SDS011;10931;52.164;5.518;2023-07-08T06:43:42;1.60;;;1.10;;
21539;SDS011;10931;52.164;5.518;2023-07-08T06:46:10;1.30;;;1.08;;
21539;SDS011;10931;52.164;5.518;2023-07-08T06:48:36;1.10;;;0.90;;
21539;SDS011;10931;52.164;5.518;2023-07-08T06:51:02;1.92;;;1.00;;
21539;SDS011;10931;52.164;5.518;2023-07-08T06:53:28;1.45;;;1.10;;
21539;SDS011;10931;52.164;5.518;2023-07-08T06:55:58;1.40;;;1.17;;
21539;SDS011;10931;52.164;5.518;2023-07-08T06:58:27;1.15;;;1.02;;
21539;SDS011;10931;52.164;5.518;2023-07-08T07:01:02;1.08;;;0.90;;
21539;SDS011;10931;52.164;5.518;2023-07-08T07:03:31;1.67;;;1.10;;
21539;SDS011;10931;52.164;5.518;2023-07-08T07:05:56;0.82;;;0.80;;
21539;SDS011;10931;52.164;5.518;2023-07-08T07:08:25;1.13;;;1.00;;
21539;SDS011;10931;52.164;5.518;2023-07-08T07:11:00;1.58;;;1.10;;
21539;SDS011;10931;52.164;5.518;2023-07-08T07:14:00;1.45;;;1.05;;
21539;SDS011;10931;52.164;5.518;2023-07-08T07:16:29;1.63;;;1.15;;
21539;SDS011;10931;52.164;5.518;2023-07-08T07:18:57;1.52;;;0.98;;
21539;SDS011;10931;52.164;5.518;2023-07-08T07:21:33;1.33;;;1.08;;
21539;SDS011;10931;52.164;5.518;2023-07-08T07:24:25;1.30;;;1.13;;
21539;SDS011;10931;52.164;5.518;2023-07-08T07:26:59;1.17;;;1.05;;
21539;SDS011;10931;52.164;5.518;2023-07-08T07:29:35;1.73;;;1.10;;
21539;SDS011;10931;52.164;5.518;2023-07-08T07:32:17;1.50;;;1.05;;
21539;SDS011;10931;52.164;5.518;2023-07-08T07:35:04;2.35;;;1.20;;
21539;SDS011;10931;52.164;5.518;2023-07-08T07:37:38;1.15;;;1.02;;
21539;SDS011;10931;52.164;5.518;2023-07-08T07:40:08;1.40;;;1.10;;
21539;SDS011;10931;52.164;5.518;2023-07-08T07:42:38;1.40;;;0.93;;
21539;SDS011;10931;52.164;5.518;2023-07-08T07:45:07;1.58;;;1.20;;
21539;SDS011;10931;52.164;5.518;2023-07-08T07:47:36;1.00;;;0.90;;
21539;SDS011;10931;52.164;5.518;2023-07-08T07:50:10;2.50;;;1.10;;
21539;SDS011;10931;52.164;5.518;2023-07-08T07:52:35;1.25;;;1.00;;
21539;SDS011;10931;52.164;5.518;2023-07-08T07:55:02;1.40;;;1.02;;
21539;SDS011;10931;52.164;5.518;2023-07-08T07:57:34;1.17;;;0.98;;
21539;SDS011;10931;52.164;5.518;2023-07-08T08:00:02;1.50;;;1.10;;
21539;SDS011;10931;52.164;5.518;2023-07-08T08:02:39;1.40;;;1.10;;
21539;SDS011;10931;52.164;5.518;2023-07-08T08:05:05;1.95;;;1.30;;
21539;SDS011;10931;52.164;5.518;2023-07-08T08:07:31;1.30;;;1.08;;
21539;SDS011;10931;52.164;5.518;2023-07-08T08:09:59;1.45;;;1.25;;
21539;SDS011;10931;52.164;5.518;2023-07-08T08:12:31;1.73;;;1.00;;
21539;SDS011;10931;52.164;5.518;2023-07-08T08:52:04;1.15;;;0.90;;
21539;SDS011;10931;52.164;5.518;2023-07-08T12:08:38;4.53;;;2.28;;
21539;SDS011;10931;52.164;5.518;2023-07-08T12:11:12;3.33;;;2.30;;
21539;SDS011;10931;52.164;5.518;2023-07-08T12:13:49;3.30;;;2.20;;
21539;SDS011;10931;52.164;5.518;2023-07-08T12:16:20;4.18;;;2.50;;
21539;SDS011;10931;52.164;5.518;2023-07-08T12:18:47;3.55;;;2.30;;
21539;SDS011;10931;52.164;5.518;2023-07-08T12:21:18;4.93;;;2.30;;
21539;SDS011;10931;52.164;5.518;2023-07-08T12:23:47;6.53;;;3.05;;
21539;SDS011;10931;52.164;5.518;2023-07-08T12:26:13;4.97;;;2.72;;
21539;SDS011;10931;52.164;5.518;2023-07-08T12:28:40;4.80;;;2.55;;
21539;SDS011;10931;52.164;5.518;2023-07-08T15:28:25;6.53;;;2.85;;
21539;SDS011;10931;52.164;5.518;2023-07-08T15:31:38;4.32;;;2.95;;
21539;SDS011;10931;52.164;5.518;2023-07-08T15:40:12;4.13;;;2.70;;
21539;SDS011;10931;52.164;5.518;2023-07-08T16:18:42;3.83;;;2.75;;
21539;SDS011;10931;52.164;5.518;2023-07-08T16:21:27;5.22;;;2.72;;
21539;SDS011;10931;52.164;5.518;2023-07-08T16:24:12;4.20;;;2.88;;
21539;SDS011;10931;52.164;5.518;2023-07-08T16:27:05;3.90;;;2.80;;
21539;SDS011;10931;52.164;5.518;2023-07-08T16:29:44;4.70;;;2.83;;
21539;SDS011;10931;52.164;5.518;2023-07-08T16:32:11;4.05;;;2.80;;
21539;SDS011;10931;52.164;5.518;2023-07-08T16:35:01;4.30;;;2.80;;
21539;SDS011;10931;52.164;5.518;2023-07-08T16:41:13;3.03;;;2.35;;
21539;SDS011;10931;52.164;5.518;2023-07-08T16:43:41;3.72;;;2.63;;
21539;SDS011;10931;52.164;5.518;2023-07-08T16:46:10;4.07;;;3.03;;
21539;SDS011;10931;52.164;5.518;2023-07-08T16:48:37;3.58;;;2.75;;
21539;SDS011;10931;52.164;5.518;2023-07-08T16:51:03;4.03;;;2.42;;
21539;SDS011;10931;52.164;5.518;2023-07-08T16:53:30;3.45;;;2.50;;
21539;SDS011;10931;52.164;5.518;2023-07-08T16:55:56;3.38;;;2.60;;
21539;SDS011;10931;52.164;5.518;2023-07-08T16:58:22;3.97;;;3.10;;
21539;SDS011;10931;52.164;5.518;2023-07-08T17:00:47;3.22;;;2.63;;
21539;SDS011;10931;52.164;5.518;2023-07-08T17:03:14;3.55;;;2.67;;
21539;SDS011;10931;52.164;5.518;2023-07-08T17:05:42;3.60;;;2.58;;
21539;SDS011;10931;52.164;5.518;2023-07-08T17:08:15;4.03;;;2.90;;
21539;SDS011;10931;52.164;5.518;2023-07-08T17:10:41;4.22;;;2.65;;
21539;SDS011;10931;52.164;5.518;2023-07-08T17:13:09;3.72;;;2.30;;
21539;SDS011;10931;52.164;5.518;2023-07-08T17:15:35;3.00;;;2.35;;
21539;SDS011;10931;52.164;5.518;2023-07-08T17:18:01;3.08;;;2.17;;
21539;SDS011;10931;52.164;5.518;2023-07-08T17:20:32;3.47;;;2.70;;
21539;SDS011;10931;52.164;5.518;2023-07-08T17:23:10;3.45;;;2.42;;
21539;SDS011;10931;52.164;5.518;2023-07-08T17:25:37;3.47;;;2.55;;
21539;SDS011;10931;52.164;5.518;2023-07-08T17:28:05;4.38;;;2.53;;
21539;SDS011;10931;52.164;5.518;2023-07-08T17:30:31;4.20;;;2.38;;
21539;SDS011;10931;52.164;5.518;2023-07-08T17:32:57;4.93;;;2.95;;
21539;SDS011;10931;52.164;5.518;2023-07-08T17:35:25;3.03;;;2.40;;
21539;SDS011;10931;52.164;5.518;2023-07-08T17:37:53;3.67;;;2.33;;
21539;SDS011;10931;52.164;5.518;2023-07-08T17:40:23;2.20;;;2.00;;
21539;SDS011;10931;52.164;5.518;2023-07-08T17:43:00;3.63;;;2.50;;
21539;SDS011;10931;52.164;5.518;2023-07-08T17:45:47;3.22;;;2.38;;
21539;SDS011;10931;52.164;5.518;2023-07-08T17:48:13;3.78;;;2.25;;
21539;SDS011;10931;52.164;5.518;2023-07-08T17:50:48;2.70;;;2.30;;
21539;SDS011;10931;52.164;5.518;2023-07-08T17:53:14;3.00;;;2.45;;
21539;SDS011;10931;52.164;5.518;2023-07-08T17:55:40;3.33;;;2.60;;
21539;SDS011;10931;52.164;5.518;2023-07-08T17:58:07;3.63;;;2.55;;
21539;SDS011;10931;52.164;5.518;2023-07-08T18:00:37;2.85;;;2.30;;
21539;SDS011;10931;52.164;5.518;2023-07-08T18:03:10;3.22;;;2.55;;
21539;SDS011;10931;52.164;5.518;2023-07-08T18:05:36;3.65;;;2.90;;
21539;SDS011;10931;52.164;5.518;2023-07-08T18:08:02;3.80;;;2.55;;
21539;SDS011;10931;52.164;5.518;2023-07-08T18:10:33;3.85;;;2.88;;
21539;SDS011;10931;52.164;5.518;2023-07-08T18:12:59;2.95;;;2.03;;
21539;SDS011;10931;52.164;5.518;2023-07-08T18:15:29;2.85;;;2.30;;
21539;SDS011;10931;52.164;5.518;2023-07-08T18:17:59;3.63;;;2.63;;
21539;SDS011;10931;52.164;5.518;2023-07-08T18:20:27;3.13;;;2.40;;
21539;SDS011;10931;52.164;5.518;2023-07-08T18:22:57;3.90;;;2.60;;
21539;SDS011;10931;52.164;5.518;2023-07-08T18:25:23;4.45;;;2.70;;
21539;SDS011;10931;52.164;5.518;2023-07-08T18:27:50;3.55;;;2.40;;
21539;SDS011;10931;52.164;5.518;2023-07-08T18:30:17;2.80;;;2.20;;
21539;SDS011;10931;52.164;5.518;2023-07-08T18:32:47;3.13;;;2.10;;
21539;SDS011;10931;52.164;5.518;2023-07-08T18:35:18;3.17;;;2.15;;
21539;SDS011;10931;52.164;5.518;2023-07-08T18:37:46;3.40;;;2.33;;
21539;SDS011;10931;52.164;5.518;2023-07-08T18:40:14;5.32;;;2.50;;
21539;SDS011;10931;52.164;5.518;2023-07-08T18:42:41;4.70;;;2.55;;
21539;SDS011;10931;52.164;5.518;2023-07-08T18:45:17;4.80;;;2.95;;
21539;SDS011;10931;52.164;5.518;2023-07-08T18:47:46;3.15;;;2.58;;
21539;SDS011;10931;52.164;5.518;2023-07-08T18:50:12;2.33;;;1.95;;
21539;SDS011;10931;52.164;5.518;2023-07-08T18:52:41;3.22;;;2.25;;
21539;SDS011;10931;52.164;5.518;2023-07-08T18:55:18;3.13;;;2.17;;
21539;SDS011;10931;52.164;5.518;2023-07-08T18:57:45;3.15;;;2.05;;
21539;SDS011;10931;52.164;5.518;2023-07-08T19:00:14;3.17;;;2.00;;
21539;SDS011;10931;52.164;5.518;2023-07-08T19:05:23;3.28;;;2.22;;
21539;SDS011;10931;52.164;5.518;2023-07-08T19:07:52;3.75;;;2.72;;
21539;SDS011;10931;52.164;5.518;2023-07-08T19:10:30;2.72;;;2.10;;
21539;SDS011;10931;52.164;5.518;2023-07-08T19:12:57;3.30;;;2.47;;
21539;SDS011;10931;52.164;5.518;2023-07-08T19:15:27;3.92;;;2.40;;
21539;SDS011;10931;52.164;5.518;2023-07-08T19:17:54;2.97;;;2.10;;
21539;SDS011;10931;52.164;5.518;2023-07-08T19:20:25;3.08;;;2.15;;
21539;SDS011;10931;52.164;5.518;2023-07-08T19:22:55;3.03;;;2.42;;
21539;SDS011;10931;52.164;5.518;2023-07-08T19:25:22;3.03;;;2.38;;
21539;SDS011;10931;52.164;5.518;2023-07-08T19:27:49;2.83;;;2.08;;
21539;SDS011;10931;52.164;5.518;2023-07-08T19:30:15;3.45;;;2.25;;
21539;SDS011;10931;52.164;5.518;2023-07-08T19:32:43;2.80;;;2.22;;
21539;SDS011;10931;52.164;5.518;2023-07-08T19:35:18;2.00;;;1.80;;
21539;SDS011;10931;52.164;5.518;2023-07-08T19:37:46;3.92;;;2.40;;
21539;SDS011;10931;52.164;5.518;2023-07-08T19:40:14;3.40;;;2.22;;
21539;SDS011;10931;52.164;5.518;2023-07-08T19:42:41;3.25;;;2.30;;
21539;SDS011;10931;52.164;5.518;2023-07-08T19:45:14;4.28;;;2.20;;
21539;SDS011;10931;52.164;5.518;2023-07-08T19:47:42;4.10;;;2.30;;
21539;SDS011;10931;52.164;5.518;2023-07-08T19:50:11;3.00;;;2.25;;
21539;SDS011;10931;52.164;5.518;2023-07-08T19:52:37;4.50;;;2.30;;
21539;SDS011;10931;52.164;5.518;2023-07-08T19:55:03;3.15;;;2.28;;
21539;SDS011;10931;52.164;5.518;2023-07-08T19:57:37;3.00;;;2.28;;
21539;SDS011;10931;52.164;5.518;2023-07-08T20:00:16;3.03;;;2.28;;
21539;SDS011;10931;52.164;5.518;2023-07-08T20:02:55;2.90;;;1.92;;
21539;SDS011;10931;52.164;5.518;2023-07-08T20:05:23;2.42;;;2.17;;
21539;SDS011;10931;52.164;5.518;2023-07-08T20:07:58;3.35;;;2.38;;
21539;SDS011;10931;52.164;5.518;2023-07-08T20:10:26;3.63;;;2.42;;
21539;SDS011;10931;52.164;5.518;2023-07-08T20:12:52;2.60;;;2.30;;
21539;SDS011;10931;52.164;5.518;2023-07-08T20:15:25;3.30;;;2.45;;
21539;SDS011;10931;52.164;5.518;2023-07-08T20:17:53;3.28;;;2.17;;
21539;SDS011;10931;52.164;5.518;2023-07-08T20:20:27;2.80;;;1.92;;
21539;SDS011;10931;52.164;5.518;2023-07-08T20:22:53;3.00;;;2.25;;
21539;SDS011;10931;52.164;5.518;2023-07-08T20:25:22;2.30;;;2.05;;
21539;SDS011;10931;52.164;5.518;2023-07-08T20:27:51;2.92;;;2.60;;
21539;SDS011;10931;52.164;5.518;2023-07-08T20:30:23;5.22;;;2.55;;
21539;SDS011;10931;52.164;5.518;2023-07-08T20:32:51;2.35;;;1.83;;
21539;SDS011;10931;52.164;5.518;2023-07-08T20:35:24;3.33;;;2.47;;
21539;SDS011;10931;52.164;5.518;2023-07-08T20:38:12;3.42;;;2.15;;
21539;SDS011;10931;52.164;5.518;2023-07-08T20:40:40;2.92;;;2.25;;
21539;SDS011;10931;52.164;5.518;2023-07-08T20:43:12;4.43;;;2.55;;
21539;SDS011;10931;52.164;5.518;2023-07-08T20:45:41;2.88;;;2.20;;
21539;SDS011;10931;52.164;5.518;2023-07-08T20:48:15;2.85;;;2.10;;
21539;SDS011;10931;52.164;5.518;2023-07-08T20:50:50;2.55;;;2.00;;
21539;SDS011;10931;52.164;5.518;2023-07-08T20:53:19;2.30;;;2.03;;
21539;SDS011;10931;52.164;5.518;2023-07-08T20:55:46;3.67;;;2.47;;
21539;SDS011;10931;52.164;5.518;2023-07-08T20:58:17;2.88;;;2.03;;
21539;SDS011;10931;52.164;5.518;2023-07-08T21:00:44;2.90;;;2.20;;
21539;SDS011;10931;52.164;5.518;2023-07-08T21:03:17;6.70;;;2.30;;
21539;SDS011;10931;52.164;5.518;2023-07-08T21:05:52;3.42;;;2.50;;
21539;SDS011;10931;52.164;5.518;2023-07-08T21:08:21;2.88;;;2.28;;
21539;SDS011;10931;52.164;5.518;2023-07-08T21:10:52;3.38;;;2.25;;
21539;SDS011;10931;52.164;5.518;2023-07-08T21:13:20;3.38;;;2.22;;
21539;SDS011;10931;52.164;5.518;2023-07-08T21:15:46;3.05;;;2.08;;
21539;SDS011;10931;52.164;5.518;2023-07-08T21:18:33;2.45;;;2.00;;
21539;SDS011;10931;52.164;5.518;2023-07-08T21:21:04;3.40;;;2.13;;
21539;SDS011;10931;52.164;5.518;2023-07-08T21:23:30;3.40;;;2.30;;
21539;SDS011;10931;52.164;5.518;2023-07-08T21:25:58;3.08;;;2.10;;
21539;SDS011;10931;52.164;5.518;2023-07-08T21:28:30;2.70;;;2.20;;
21539;SDS011;10931;52.164;5.518;2023-07-08T21:31:02;2.70;;;2.20;;
21539;SDS011;10931;52.164;5.518;2023-07-08T21:33:28;2.95;;;2.17;;
21539;SDS011;10931;52.164;5.518;2023-07-08T21:35:55;2.83;;;2.30;;
21539;SDS011;10931;52.164;5.518;2023-07-08T21:38:30;2.58;;;2.22;;
21539;SDS011;10931;52.164;5.518;2023-07-08T21:40:55;2.80;;;2.47;;
21539;SDS011;10931;52.164;5.518;2023-07-08T21:43:26;3.38;;;2.35;;
21539;SDS011;10931;52.164;5.518;2023-07-08T21:45:54;2.97;;;2.33;;
21539;SDS011;10931;52.164;5.518;2023-07-08T21:48:19;3.10;;;2.35;;
21539;SDS011;10931;52.164;5.518;2023-07-08T21:50:47;3.28;;;2.45;;
21539;SDS011;10931;52.164;5.518;2023-07-08T21:53:35;4.13;;;2.55;;
21539;SDS011;10931;52.164;5.518;2023-07-08T21:56:01;3.75;;;2.72;;
21539;SDS011;10931;52.164;5.518;2023-07-08T21:58:28;3.58;;;2.45;;
21539;SDS011;10931;52.164;5.518;2023-07-08T22:00:54;2.45;;;2.20;;
21539;SDS011;10931;52.164;5.518;2023-07-08T22:03:24;3.25;;;2.17;;
21539;SDS011;10931;52.164;5.518;2023-07-08T22:05:55;4.93;;;2.88;;
21539;SDS011;10931;52.164;5.518;2023-07-08T22:08:26;4.00;;;2.50;;
21539;SDS011;10931;52.164;5.518;2023-07-08T22:10:56;3.38;;;2.83;;
21539;SDS011;10931;52.164;5.518;2023-07-08T22:13:29;3.85;;;2.45;;
21539;SDS011;10931;52.164;5.518;2023-07-08T22:16:01;3.33;;;2.50;;
21539;SDS011;10931;52.164;5.518;2023-07-08T22:18:30;3.05;;;2.33;;
21539;SDS011;10931;52.164;5.518;2023-07-08T22:21:00;3.78;;;2.67;;
21539;SDS011;10931;52.164;5.518;2023-07-08T22:23:30;3.80;;;2.40;;
21539;SDS011;10931;52.164;5.518;2023-07-08T22:25:57;3.65;;;2.63;;
21539;SDS011;10931;52.164;5.518;2023-07-08T22:28:24;2.95;;;2.53;;
21539;SDS011;10931;52.164;5.518;2023-07-08T22:30:51;2.65;;;2.42;;
21539;SDS011;10931;52.164;5.518;2023-07-08T22:33:18;3.55;;;2.33;;
21539;SDS011;10931;52.164;5.518;2023-07-08T22:35:45;5.28;;;3.13;;
21539;SDS011;10931;52.164;5.518;2023-07-08T22:38:12;2.78;;;2.42;;
21539;SDS011;10931;52.164;5.518;2023-07-08T22:40:44;3.28;;;2.67;;
21539;SDS011;10931;52.164;5.518;2023-07-08T22:43:29;3.35;;;2.63;;
21539;SDS011;10931;52.164;5.518;2023-07-08T22:45:56;3.30;;;2.67;;
21539;SDS011;10931;52.164;5.518;2023-07-08T22:48:24;4.32;;;3.03;;
21539;SDS011;10931;52.164;5.518;2023-07-08T22:50:51;4.50;;;2.40;;
